Terminal Aerodrome Forecast
Issued by NWS Sterling, VA

Home | Current Version | Previous Version | Text Only | Print | Product List | Glossary On
Versions: 1 2 3 4 5 6 7 8 9 10 11 12 13 14 15 16 17 18 19 20 21 22 23
000
FTUS41 KLWX 171120
TAFBWI
TAF
KBWI 171120Z 1712/1818 00000KT 6SM BR VCSH OVC012
     FM171400 VRB03KT 5SM -SHRA BR OVC008
     FM172100 16005KT P6SM OVC005
     FM180300 23005KT 6SM BR BKN005
     FM180900 27005KT P6SM BKN050
     FM181600 30010KT P6SM BKN045=

USA.gov is the U.S. government's official web portal to all federal, state and local government web resources and services.